createdAt,value
2018-04-11T00:00:05.696Z,5.37
2018-04-11T00:01:11.499Z,4.85
2018-04-11T00:02:18.006Z,5.03
2018-04-11T00:03:23.774Z,5.97
2018-04-11T00:04:29.554Z,5.70
2018-04-11T00:05:36.072Z,5.32
2018-04-11T00:06:41.854Z,5.43
2018-04-11T00:07:47.611Z,4.62
2018-04-11T00:08:53.360Z,6.28
2018-04-11T00:09:59.111Z,5.30
2018-04-11T00:11:04.864Z,5.60
2018-04-11T00:12:10.638Z,4.95
2018-04-11T00:13:17.163Z,5.37
2018-04-11T00:14:22.909Z,5.78
2018-04-11T00:15:28.659Z,5.40
2018-04-11T00:16:34.428Z,5.03
2018-04-11T00:17:40.990Z,5.15
2018-04-11T00:18:47.507Z,5.03
2018-04-11T00:19:53.291Z,5.40
2018-04-11T00:20:59.607Z,4.93
2018-04-11T00:22:05.446Z,5.18
2018-04-11T00:23:11.245Z,5.78
2018-04-11T00:24:17.784Z,4.80
2018-04-11T00:25:24.312Z,4.65
2018-04-11T00:26:30.075Z,5.85
2018-04-11T00:27:35.876Z,6.40
2018-04-11T00:28:41.646Z,5.22
2018-04-11T00:29:47.440Z,5.90
2018-04-11T00:30:53.978Z,6.32
2018-04-11T00:32:00.111Z,5.43
2018-04-11T00:33:05.874Z,5.65
2018-04-11T00:34:12.187Z,5.68
2018-04-11T00:35:17.953Z,5.55
2018-04-11T00:36:23.727Z,5.43
2018-04-11T00:37:29.488Z,5.57
2018-04-11T00:38:35.377Z,5.72
2018-04-11T00:39:40.949Z,6.20
2018-04-11T00:40:46.707Z,5.60
2018-04-11T00:41:52.470Z,5.30
2018-04-11T00:42:58.242Z,6.10
2018-04-11T00:44:03.989Z,5.85
2018-04-11T00:45:10.551Z,6.07
2018-04-11T00:46:16.305Z,6.10
2018-04-11T00:47:22.075Z,5.68
2018-04-11T00:48:27.900Z,6.07
2018-04-11T00:49:34.494Z,6.75
2018-04-11T00:50:40.295Z,6.07
2018-04-11T00:51:46.232Z,6.20
2018-04-11T00:53:09.791Z,5.60
2018-04-11T00:54:16.308Z,6.25
2018-04-11T00:55:22.058Z,6.53
2018-04-11T00:56:27.827Z,7.25
2018-04-11T00:57:34.352Z,6.05
2018-04-11T00:58:40.148Z,6.07
2018-04-11T00:59:46.673Z,6.28
2018-04-11T01:00:52.195Z,5.65
2018-04-11T01:01:57.999Z,6.25
2018-04-11T01:03:03.639Z,7.10
2018-04-11T01:04:09.372Z,6.50
2018-04-11T01:05:15.118Z,6.20
2018-04-11T01:06:20.890Z,5.75
2018-04-11T01:07:26.687Z,6.60
2018-04-11T01:08:33.203Z,6.32
2018-04-11T01:09:39.000Z,6.80
2018-04-11T01:10:45.518Z,6.45
2018-04-11T01:11:51.259Z,7.43
2018-04-11T01:12:57.816Z,6.37
2018-04-11T01:14:03.567Z,5.40
2018-04-11T01:15:09.327Z,6.72
2018-04-11T01:16:15.849Z,5.70
2018-04-11T01:17:21.620Z,6.82
2018-04-11T01:18:28.159Z,5.87
2018-04-11T01:19:33.909Z,6.12
2018-04-11T01:20:39.691Z,6.07
2018-04-11T01:21:45.441Z,6.35
2018-04-11T01:22:51.191Z,5.90
2018-04-11T01:23:56.967Z,6.55
2018-04-11T01:25:02.714Z,6.00
2018-04-11T01:26:09.284Z,6.87
2018-04-11T01:27:15.806Z,6.20
2018-04-11T01:28:21.546Z,6.62
2018-04-11T01:29:27.334Z,5.95
2018-04-11T01:30:33.857Z,6.15
2018-04-11T01:31:39.603Z,6.45
2018-04-11T01:32:45.366Z,5.18
2018-04-11T01:33:51.139Z,6.35
2018-04-11T01:34:56.906Z,6.12
2018-04-11T01:36:02.670Z,5.68
2018-04-11T01:37:08.436Z,6.97
2018-04-11T01:38:15.179Z,6.30
2018-04-11T01:39:20.945Z,6.00
2018-04-11T01:40:26.740Z,6.18
2018-04-11T01:41:32.496Z,6.30
2018-04-11T01:42:38.227Z,6.50
2018-04-11T01:43:43.963Z,6.62
2018-04-11T01:44:49.710Z,6.35
2018-04-11T01:45:55.481Z,6.35
2018-04-11T01:47:01.233Z,7.60
2018-04-11T01:48:07.747Z,6.40
2018-04-11T01:49:13.495Z,7.55
2018-04-11T01:50:19.264Z,6.10
2018-04-11T01:51:25.142Z,6.57
2018-04-11T01:52:31.644Z,6.70
2018-04-11T01:53:37.387Z,6.35
2018-04-11T01:54:43.188Z,6.55
2018-04-11T01:55:49.704Z,5.62
2018-04-11T01:56:55.252Z,5.55
2018-04-11T01:58:01.027Z,6.30
2018-04-11T01:59:06.778Z,6.07
2018-04-11T02:00:12.526Z,6.50
2018-04-11T02:01:18.352Z,7.40
2018-04-11T02:02:24.875Z,6.62
2018-04-11T02:03:30.629Z,6.20
2018-04-11T02:04:36.923Z,6.10
2018-04-11T02:05:42.675Z,5.87
2018-04-11T02:06:48.432Z,6.20
2018-04-11T02:07:54.198Z,6.68
2018-04-11T02:09:00.722Z,6.47
2018-04-11T02:10:06.135Z,6.30
2018-04-11T02:11:11.698Z,6.65
2018-04-11T02:12:17.228Z,6.43
2018-04-11T02:13:23.003Z,6.87
2018-04-11T02:14:28.523Z,6.75
2018-04-11T02:15:34.096Z,8.13
2018-04-11T02:16:40.606Z,6.07
2018-04-11T02:17:46.110Z,6.75
2018-04-11T02:18:51.883Z,6.60
2018-04-11T02:19:57.440Z,7.07
2018-04-11T02:21:03.190Z,7.45
2018-04-11T02:22:08.935Z,7.82
2018-04-11T02:23:14.695Z,7.22
2018-04-11T02:24:21.255Z,8.18
2018-04-11T02:25:27.795Z,8.10
2018-04-11T02:26:33.560Z,8.68
2018-04-11T02:27:40.077Z,7.80
2018-04-11T02:28:45.830Z,8.45
2018-04-11T02:29:51.612Z,8.45
2018-04-11T02:30:57.363Z,7.85
2018-04-11T02:32:03.171Z,8.10
2018-04-11T02:33:09.071Z,7.80
2018-04-11T02:34:14.588Z,7.43
2018-04-11T02:35:20.407Z,7.50
2018-04-11T02:36:26.980Z,7.47
2018-04-11T02:37:33.490Z,8.95
2018-04-11T02:38:39.250Z,8.25
2018-04-11T02:39:44.798Z,8.25
2018-04-11T02:40:51.405Z,7.62
2018-04-11T02:41:57.178Z,7.97
2018-04-11T02:43:02.928Z,7.87
2018-04-11T02:44:08.691Z,8.45
2018-04-11T02:45:15.242Z,8.27
2018-04-11T02:46:21.101Z,8.25
2018-04-11T02:47:27.617Z,7.75
2018-04-11T02:48:33.415Z,8.68
2018-04-11T02:49:39.167Z,7.53
2018-04-11T02:50:44.932Z,8.07
2018-04-11T02:51:50.697Z,7.30
2018-04-11T02:52:56.456Z,8.63
2018-04-11T02:54:02.973Z,7.22
2018-04-11T02:55:08.716Z,7.70
2018-04-11T02:56:14.513Z,7.00
2018-04-11T02:57:20.294Z,7.25
2018-04-11T02:58:26.043Z,7.85
2018-04-11T02:59:31.803Z,7.43
2018-04-11T03:00:37.554Z,7.78
2018-04-11T03:01:43.295Z,7.95
2018-04-11T03:02:49.078Z,7.57
2018-04-11T03:03:54.821Z,8.02
2018-04-11T03:05:00.633Z,7.70
2018-04-11T03:06:06.532Z,7.62
2018-04-11T03:07:12.053Z,8.13
2018-04-11T03:08:17.864Z,8.63
2018-04-11T03:09:24.392Z,7.62
2018-04-11T03:10:30.325Z,8.18
2018-04-11T03:11:36.099Z,8.10
2018-04-11T03:12:42.618Z,7.47
2018-04-11T03:13:48.390Z,8.30
2018-04-11T03:14:54.177Z,7.82
2018-04-11T03:15:59.938Z,7.37
2018-04-11T03:17:05.687Z,7.45
2018-04-11T03:18:11.492Z,8.50
2018-04-11T03:19:17.265Z,8.05
2018-04-11T03:20:23.016Z,8.25
2018-04-11T03:21:28.770Z,8.00
2018-04-11T03:22:34.521Z,8.45
2018-04-11T03:23:40.269Z,8.10
2018-04-11T03:24:46.052Z,8.88
2018-04-11T03:25:51.815Z,8.35
2018-04-11T03:26:57.594Z,8.40
2018-04-11T03:28:03.345Z,9.32
2018-04-11T03:29:09.869Z,9.25
2018-04-11T03:30:15.630Z,8.52
2018-04-11T03:31:21.171Z,9.10
2018-04-11T03:32:26.943Z,9.10
2018-04-11T03:33:33.521Z,8.68
2018-04-11T03:34:39.199Z,7.82
2018-04-11T03:35:44.962Z,7.62
2018-04-11T03:36:51.483Z,8.48
2018-04-11T03:37:57.231Z,9.02
2018-04-11T03:39:03.020Z,8.25
2018-04-11T03:40:09.557Z,8.90
2018-04-11T03:41:15.334Z,9.68
2018-04-11T03:42:21.092Z,8.25
2018-04-11T03:43:26.849Z,9.35
2018-04-11T03:44:32.595Z,8.57
2018-04-11T03:45:38.341Z,8.25
2018-04-11T03:46:44.115Z,9.18
2018-04-11T03:47:49.854Z,8.05
2018-04-11T03:48:55.595Z,8.82
2018-04-11T03:50:01.341Z,8.70
2018-04-11T03:51:07.539Z,8.70
2018-04-11T03:52:13.350Z,9.32
2018-04-11T03:53:19.865Z,8.23
2018-04-11T03:54:25.615Z,9.18
2018-04-11T03:55:31.371Z,9.57
2018-04-11T03:56:37.955Z,9.57
2018-04-11T03:57:43.763Z,9.18
2018-04-11T03:58:49.516Z,9.00
2018-04-11T03:59:56.099Z,9.48
2018-04-11T04:01:01.854Z,8.90
2018-04-11T04:02:07.600Z,8.95
2018-04-11T04:03:13.406Z,8.82
2018-04-11T04:04:19.941Z,9.68
2018-04-11T04:05:25.696Z,8.73
2018-04-11T04:06:32.280Z,9.18
2018-04-11T04:07:38.820Z,8.95
2018-04-11T04:08:44.835Z,9.95
2018-04-11T04:09:50.598Z,9.25
2018-04-11T04:10:56.356Z,8.90
2018-04-11T04:12:02.875Z,9.85
2018-04-11T04:13:08.637Z,8.55
2018-04-11T04:14:31.150Z,10.10
2018-04-11T04:15:53.879Z,10.02
2018-04-11T04:17:16.519Z,10.05
2018-04-11T04:18:39.171Z,9.65
2018-04-11T04:21:41.675Z,8.80
2018-04-11T04:22:47.443Z,9.27
2018-04-11T04:23:53.420Z,10.50
2018-04-11T04:24:58.952Z,9.60
2018-04-11T04:26:04.486Z,8.65
2018-04-11T04:27:10.252Z,9.07
2018-04-11T04:28:16.358Z,9.07
2018-04-11T04:29:22.115Z,9.50
2018-04-11T04:30:27.875Z,9.85
2018-04-11T04:31:33.651Z,8.95
2018-04-11T04:32:39.176Z,9.40
2018-04-11T04:33:45.063Z,10.23
2018-04-11T04:34:50.824Z,10.20
2018-04-11T04:35:56.590Z,9.20
2018-04-11T04:37:02.387Z,9.50
2018-04-11T04:38:08.167Z,10.55
2018-04-11T04:39:13.918Z,9.27
2018-04-11T04:40:19.715Z,9.45
2018-04-11T04:41:25.468Z,9.80
2018-04-11T04:42:31.250Z,10.15
2018-04-11T04:43:37.060Z,9.60
2018-04-11T04:44:43.010Z,10.60
2018-04-11T04:45:48.776Z,9.90
2018-04-11T04:46:54.534Z,9.68
2018-04-11T04:48:00.549Z,10.18
2018-04-11T04:49:06.088Z,10.25
2018-04-11T04:50:11.894Z,10.32
2018-04-11T04:51:17.434Z,10.30
2018-04-11T04:52:23.188Z,10.38
2018-04-11T04:53:28.979Z,10.13
2018-04-11T04:54:34.757Z,10.02
2018-04-11T04:55:40.502Z,9.30
2018-04-11T04:56:46.263Z,9.95
2018-04-11T04:57:52.018Z,9.93
2018-04-11T04:58:57.801Z,10.02
2018-04-11T05:00:04.107Z,10.43
2018-04-11T05:01:09.664Z,9.05
2018-04-11T05:02:15.428Z,9.02
2018-04-11T05:03:21.177Z,9.38
2018-04-11T05:04:27.724Z,8.25
2018-04-11T05:05:34.049Z,8.77
2018-04-11T05:06:40.800Z,9.20
2018-04-11T05:07:46.647Z,8.73
2018-04-11T05:08:52.388Z,8.27
2018-04-11T05:09:58.169Z,8.68
2018-04-11T05:11:03.914Z,8.90
2018-04-11T05:12:10.444Z,9.32
2018-04-11T05:13:16.202Z,8.18
2018-04-11T05:14:21.963Z,8.55
2018-04-11T05:15:28.295Z,10.13
2018-04-11T05:16:34.067Z,9.82
2018-04-11T05:17:40.596Z,8.82
2018-04-11T05:18:46.128Z,9.57
2018-04-11T05:19:51.886Z,9.15
2018-04-11T05:20:57.655Z,8.80
2018-04-11T05:22:04.223Z,8.07
2018-04-11T05:23:10.779Z,9.45
2018-04-11T05:24:16.312Z,8.50
2018-04-11T05:25:22.886Z,8.40
2018-04-11T05:26:28.704Z,9.02
2018-04-11T05:27:35.230Z,9.27
2018-04-11T05:28:40.864Z,9.25
2018-04-11T05:29:47.436Z,8.30
2018-04-11T05:30:53.196Z,8.45
2018-04-11T05:31:58.774Z,8.57
2018-04-11T05:33:04.539Z,9.60
2018-04-11T05:34:10.304Z,8.98
2018-04-11T05:35:15.839Z,9.25
2018-04-11T05:36:21.591Z,9.43
2018-04-11T05:37:27.371Z,9.25
2018-04-11T05:38:33.139Z,8.98
2018-04-11T05:39:38.897Z,9.02
2018-04-11T05:40:44.425Z,11.12
2018-04-11T05:41:50.207Z,9.90
2018-04-11T05:42:56.754Z,10.25
2018-04-11T05:44:03.312Z,9.95
2018-04-11T05:45:09.079Z,9.70
2018-04-11T05:46:15.651Z,9.30
2018-04-11T05:47:21.594Z,8.88
2018-04-11T05:48:27.383Z,10.15
2018-04-11T05:49:33.142Z,9.88
2018-04-11T05:50:38.900Z,9.48
2018-04-11T05:51:45.429Z,10.50
2018-04-11T05:52:51.188Z,9.60
2018-04-11T05:53:56.983Z,10.95
2018-04-11T05:55:02.737Z,9.40
2018-04-11T05:56:08.271Z,9.82
2018-04-11T05:57:14.041Z,9.55
2018-04-11T05:58:19.811Z,9.63
2018-04-11T05:59:25.619Z,11.15
2018-04-11T06:00:31.584Z,10.82
2018-04-11T06:01:38.118Z,10.23
2018-04-11T06:02:43.908Z,10.00
2018-04-11T06:03:49.698Z,10.25
2018-04-11T06:04:55.496Z,11.10
2018-04-11T06:06:01.308Z,10.23
2018-04-11T06:07:07.023Z,9.48
2018-04-11T06:08:12.803Z,10.05
2018-04-11T06:09:19.339Z,10.13
2018-04-11T06:10:25.125Z,9.75
2018-04-11T06:11:30.906Z,10.10
2018-04-11T06:12:36.664Z,9.93
2018-04-11T06:13:42.427Z,9.70
2018-04-11T06:14:48.959Z,9.65
2018-04-11T06:15:54.763Z,9.95
2018-04-11T06:17:00.573Z,10.43
2018-04-11T06:18:06.519Z,9.90
2018-04-11T06:19:13.059Z,9.43
2018-04-11T06:20:18.831Z,9.20
2018-04-11T06:21:24.619Z,10.43
2018-04-11T06:22:30.386Z,10.80
2018-04-11T06:23:36.177Z,10.05
2018-04-11T06:24:41.943Z,10.32
2018-04-11T06:25:47.715Z,10.15
2018-04-11T06:26:53.303Z,9.32
2018-04-11T06:27:59.184Z,9.40
2018-04-11T06:29:05.104Z,9.23
2018-04-11T06:30:10.876Z,10.65
2018-04-11T06:31:16.625Z,8.95
2018-04-11T06:32:22.456Z,9.90
2018-04-11T06:33:28.396Z,11.15
2018-04-11T06:34:34.176Z,11.65
2018-04-11T06:35:40.727Z,10.70
2018-04-11T06:36:47.254Z,10.68
2018-04-11T06:37:53.137Z,10.50
2018-04-11T06:38:59.663Z,9.57
2018-04-11T06:40:04.776Z,10.70
2018-04-11T06:41:10.547Z,10.25
2018-04-11T06:42:16.295Z,9.20
2018-04-11T06:43:22.082Z,9.90
2018-04-11T06:44:28.055Z,10.07
2018-04-11T06:45:33.814Z,9.80
2018-04-11T06:46:39.372Z,10.43
2018-04-11T06:47:45.925Z,9.40
2018-04-11T06:48:52.513Z,10.43
2018-04-11T06:49:58.275Z,10.00
2018-04-11T06:51:04.028Z,8.35
2018-04-11T06:52:09.782Z,9.82
2018-04-11T06:53:15.532Z,8.80
2018-04-11T06:54:21.302Z,9.07
2018-04-11T06:55:27.835Z,9.10
2018-04-11T06:56:33.600Z,9.85
2018-04-11T06:57:39.909Z,9.82
2018-04-11T06:58:45.659Z,8.48
2018-04-11T06:59:51.240Z,8.80
2018-04-11T07:00:57.756Z,9.15
2018-04-11T07:02:03.512Z,9.93
2018-04-11T07:03:09.258Z,9.63
2018-04-11T07:04:15.031Z,10.43
2018-04-11T07:05:20.831Z,10.18
2018-04-11T07:06:26.596Z,9.55
2018-04-11T07:07:33.124Z,12.90
2018-04-11T07:08:38.880Z,9.48
2018-04-11T07:09:44.632Z,9.93
2018-04-11T07:10:50.398Z,7.65
2018-04-11T07:11:56.956Z,9.23
2018-04-11T07:13:02.717Z,9.70
2018-04-11T07:14:08.540Z,10.98
2018-04-11T07:15:14.117Z,9.75
2018-04-11T07:16:19.878Z,8.50
2018-04-11T07:17:25.630Z,8.95
2018-04-11T07:18:31.387Z,10.30
2018-04-11T07:19:37.915Z,9.25
2018-04-11T07:20:43.436Z,9.82
2018-04-11T07:21:49.223Z,9.88
2018-04-11T07:22:54.986Z,9.43
2018-04-11T07:24:00.933Z,9.90
2018-04-11T07:25:06.713Z,9.95
2018-04-11T07:26:12.478Z,9.77
2018-04-11T07:27:18.252Z,8.85
2018-04-11T07:28:24.764Z,9.13
2018-04-11T07:29:30.514Z,9.13
2018-04-11T07:30:36.282Z,9.60
2018-04-11T07:31:42.811Z,10.10
2018-04-11T07:32:48.592Z,9.30
2018-04-11T07:33:55.117Z,9.38
2018-04-11T07:35:00.870Z,10.02
2018-04-11T07:36:06.656Z,9.45
2018-04-11T07:37:12.415Z,9.77
2018-04-11T07:38:18.184Z,9.70
2018-04-11T07:39:23.962Z,9.80
2018-04-11T07:40:30.492Z,9.38
2018-04-11T07:41:36.763Z,9.85
2018-04-11T07:42:43.287Z,9.13
2018-04-11T07:43:49.075Z,10.35
2018-04-11T07:44:55.595Z,9.88
2018-04-11T07:46:01.384Z,9.73
2018-04-11T07:47:07.348Z,9.70
2018-04-11T07:48:12.880Z,10.18
2018-04-11T07:49:18.699Z,9.40
2018-04-11T07:50:24.623Z,9.65
2018-04-11T07:51:30.184Z,10.18
2018-04-11T07:52:36.467Z,9.10
2018-04-11T07:53:42.249Z,10.32
2018-04-11T07:54:48.030Z,8.30
2018-04-11T07:55:54.574Z,9.60
2018-04-11T07:57:01.087Z,9.57
2018-04-11T07:58:06.850Z,9.80
2018-04-11T07:59:12.611Z,10.32
2018-04-11T08:00:19.159Z,10.18
2018-04-11T08:01:24.926Z,9.73
2018-04-11T08:02:31.224Z,10.32
2018-04-11T08:03:36.991Z,10.05
2018-04-11T08:04:42.523Z,10.32
2018-04-11T08:05:48.072Z,9.45
2018-04-11T08:06:53.835Z,10.30
2018-04-11T08:07:59.613Z,11.25
2018-04-11T08:09:04.253Z,11.00
2018-04-11T08:10:10.032Z,11.00
2018-04-11T08:11:16.587Z,10.98
2018-04-11T08:12:23.125Z,10.90
2018-04-11T08:13:28.644Z,9.82
2018-04-11T08:14:34.180Z,11.10
2018-04-11T08:15:39.949Z,11.00
2018-04-11T08:16:45.735Z,11.90
2018-04-11T08:17:51.518Z,11.98
2018-04-11T08:18:57.318Z,12.43
2018-04-11T08:20:02.878Z,11.52
2018-04-11T08:21:08.178Z,11.00
2018-04-11T08:22:13.717Z,10.75
2018-04-11T08:23:19.324Z,11.43
2018-04-11T08:24:25.248Z,10.13
2018-04-11T08:25:31.026Z,11.82
2018-04-11T08:26:37.347Z,11.10
2018-04-11T08:27:42.917Z,11.85
2018-04-11T08:28:49.206Z,11.40
2018-04-11T08:29:55.024Z,11.85
2018-04-11T08:31:00.951Z,11.75
2018-04-11T08:32:07.256Z,11.35
2018-04-11T08:33:13.052Z,11.43
2018-04-11T08:34:19.580Z,11.82
2018-04-11T08:35:25.355Z,12.45
2018-04-11T08:36:31.910Z,13.20
2018-04-11T08:37:38.432Z,13.70
2018-04-11T08:38:43.343Z,12.15
2018-04-11T08:39:49.110Z,12.27
2018-04-11T08:40:54.874Z,12.20
2018-04-11T08:42:01.425Z,12.95
2018-04-11T08:43:07.185Z,12.57
2018-04-11T08:44:13.180Z,13.48
2018-04-11T08:45:18.940Z,12.55
2018-04-11T08:46:24.702Z,13.32
2018-04-11T08:47:31.241Z,12.55
2018-04-11T08:48:37.337Z,12.70
2018-04-11T08:49:43.144Z,12.02
2018-04-11T08:50:48.909Z,13.02
2018-04-11T08:51:55.465Z,11.85
2018-04-11T08:53:02.004Z,13.00
2018-04-11T08:54:07.559Z,14.07
2018-04-11T08:55:14.116Z,12.23
2018-04-11T08:56:20.647Z,12.20
2018-04-11T08:57:26.412Z,12.40
2018-04-11T08:58:32.954Z,11.70
2018-04-11T08:59:38.731Z,12.43
2018-04-11T09:00:45.275Z,12.50
2018-04-11T09:01:51.819Z,12.63
2018-04-11T09:02:57.595Z,10.90
2018-04-11T09:04:03.374Z,11.98
2018-04-11T09:05:09.130Z,11.70
2018-04-11T09:06:14.923Z,11.90
2018-04-11T09:07:20.704Z,12.25
2018-04-11T09:08:26.246Z,13.10
2018-04-11T09:09:32.023Z,12.18
2018-04-11T09:10:38.566Z,11.98
2018-04-11T09:11:44.360Z,12.68
2018-04-11T09:12:50.131Z,12.10
2018-04-11T09:13:55.950Z,11.90
2018-04-11T09:15:01.739Z,12.63
2018-04-11T09:16:07.535Z,13.07
2018-04-11T09:17:13.327Z,11.48
2018-04-11T09:18:19.863Z,11.60
2018-04-11T09:19:25.636Z,12.10
2018-04-11T09:20:32.171Z,12.05
2018-04-11T09:21:37.931Z,12.40
2018-04-11T09:22:43.812Z,12.18
2018-04-11T09:23:49.592Z,13.60
2018-04-11T09:24:55.367Z,11.55
2018-04-11T09:26:01.923Z,12.48
2018-04-11T09:27:07.688Z,12.95
2018-04-11T09:28:13.540Z,13.10
2018-04-11T09:29:19.302Z,13.32
2018-04-11T09:30:25.062Z,12.55
2018-04-11T09:31:30.837Z,13.77
2018-04-11T09:32:37.363Z,12.88
2018-04-11T09:33:43.190Z,12.52
2018-04-11T09:34:48.727Z,13.40
2018-04-11T09:35:54.537Z,13.50
2018-04-11T09:37:01.084Z,12.20
2018-04-11T09:38:07.620Z,12.88
2018-04-11T09:39:13.416Z,13.65
2018-04-11T09:40:19.200Z,13.98
2018-04-11T09:41:24.954Z,13.18
2018-04-11T09:42:30.750Z,13.23
2018-04-11T09:43:36.514Z,13.15
2018-04-11T09:44:42.311Z,13.93
2018-04-11T09:45:48.083Z,12.45
2018-04-11T09:46:53.863Z,12.68
2018-04-11T09:47:59.626Z,12.85
2018-04-11T09:49:06.181Z,13.38
2018-04-11T09:50:12.175Z,14.02
2018-04-11T09:51:17.947Z,13.48
2018-04-11T09:52:23.719Z,13.80
2018-04-11T09:53:30.252Z,12.98
2018-04-11T09:54:36.025Z,12.95
2018-04-11T09:55:42.487Z,12.95
2018-04-11T09:56:48.541Z,12.98
2018-04-11T09:57:54.312Z,13.15
2018-04-11T09:59:00.079Z,12.10
2018-04-11T10:00:05.302Z,13.27
2018-04-11T10:01:18.673Z,13.45
2018-04-11T10:02:24.443Z,12.93
2018-04-11T10:03:30.218Z,12.73
2018-04-11T10:04:37.503Z,12.95
2018-04-11T10:05:43.264Z,14.30
2018-04-11T10:06:49.058Z,12.75
2018-04-11T10:07:55.030Z,13.75
2018-04-11T10:09:00.804Z,13.35
2018-04-11T10:10:06.619Z,12.73
2018-04-11T10:11:13.166Z,12.43
2018-04-11T10:12:18.984Z,13.98
2018-04-11T10:13:24.796Z,13.10
2018-04-11T10:14:30.960Z,12.90
2018-04-11T10:15:36.722Z,12.00
2018-04-11T10:16:42.492Z,14.02
2018-04-11T10:17:48.301Z,14.57
2018-04-11T10:18:54.067Z,14.10
2018-04-11T10:19:59.838Z,13.77
2018-04-11T10:21:06.390Z,13.88
2018-04-11T10:22:12.686Z,13.43
2018-04-11T10:23:18.246Z,13.18
2018-04-11T10:24:24.558Z,14.10
2018-04-11T10:25:30.338Z,14.05
2018-04-11T10:26:36.115Z,14.75
2018-04-11T10:27:42.649Z,13.65
2018-04-11T10:28:48.426Z,15.43
2018-04-11T10:29:54.959Z,14.18
2018-04-11T10:31:00.731Z,14.45
2018-04-11T10:32:07.291Z,14.43
2018-04-11T10:33:13.812Z,14.95
2018-04-11T10:34:19.600Z,14.00
2018-04-11T10:35:25.381Z,13.80
2018-04-11T10:36:31.153Z,14.50
2018-04-11T10:37:36.919Z,14.63
2018-04-11T10:38:43.474Z,13.95
2018-04-11T10:39:50.080Z,14.38
2018-04-11T10:40:56.774Z,14.20
2018-04-11T10:42:02.568Z,15.05
2018-04-11T10:43:08.336Z,15.05
2018-04-11T10:44:14.656Z,14.60
2018-04-11T10:45:20.448Z,14.05
2018-04-11T10:46:26.217Z,13.77
2018-04-11T10:47:32.758Z,14.82
2018-04-11T10:48:38.529Z,15.23
2018-04-11T10:49:45.067Z,14.00
2018-04-11T10:50:51.632Z,13.80
2018-04-11T10:51:57.401Z,14.35
2018-04-11T10:53:03.169Z,14.48
2018-04-11T10:54:08.947Z,13.60
2018-04-11T10:55:16.230Z,15.80
2018-04-11T10:56:22.027Z,13.57
2018-04-11T10:57:27.791Z,14.57
2018-04-11T10:58:33.555Z,14.52
2018-04-11T10:59:39.342Z,14.15
2018-04-11T11:00:45.145Z,14.52
2018-04-11T11:01:50.889Z,15.77
2018-04-11T11:02:57.414Z,15.68
2018-04-11T11:04:03.217Z,15.55
2018-04-11T11:05:08.991Z,14.77
2018-04-11T11:06:14.425Z,15.93
2018-04-11T11:07:20.221Z,15.27
2018-04-11T11:08:26.763Z,15.43
2018-04-11T11:09:32.535Z,15.95
2018-04-11T11:10:38.059Z,15.77
2018-04-11T11:11:44.599Z,13.98
2018-04-11T11:12:50.163Z,14.75
2018-04-11T11:13:55.942Z,14.98
2018-04-11T11:15:01.704Z,16.02
2018-04-11T11:16:07.475Z,15.77
2018-04-11T11:17:14.008Z,14.68
2018-04-11T11:18:19.909Z,14.90
2018-04-11T11:19:25.675Z,15.10
2018-04-11T11:20:31.445Z,15.00
2018-04-11T11:21:37.223Z,14.25
2018-04-11T11:22:42.759Z,14.75
2018-04-11T11:23:48.552Z,14.43
2018-04-11T11:24:54.326Z,15.50
2018-04-11T11:26:00.631Z,14.05
2018-04-11T11:27:06.399Z,14.55
2018-04-11T11:28:13.726Z,14.07
2018-04-11T11:29:19.681Z,12.73
2018-04-11T11:30:25.464Z,14.35
2018-04-11T11:31:31.330Z,14.30
2018-04-11T11:32:37.868Z,15.32
2018-04-11T11:33:43.643Z,13.75
2018-04-11T11:34:49.982Z,14.65
2018-04-11T11:35:55.764Z,13.60
2018-04-11T11:37:01.293Z,14.00
2018-04-11T11:38:07.074Z,15.10
2018-04-11T11:39:12.651Z,15.63
2018-04-11T11:40:19.236Z,14.50
2018-04-11T11:41:24.874Z,15.13
2018-04-11T11:42:30.643Z,15.18
2018-04-11T11:43:36.412Z,14.90
2018-04-11T11:44:42.198Z,14.55
2018-04-11T11:45:48.026Z,13.85
2018-04-11T11:46:54.600Z,15.57
2018-04-11T11:48:00.401Z,15.70
2018-04-11T11:49:06.433Z,15.00
2018-04-11T11:50:12.204Z,14.10
2018-04-11T11:51:18.006Z,14.65
2018-04-11T11:52:23.792Z,15.13
2018-04-11T11:53:30.522Z,15.07
2018-04-11T11:54:37.008Z,14.35
2018-04-11T11:55:43.566Z,14.95
2018-04-11T11:56:51.085Z,15.60
2018-04-11T11:57:56.851Z,13.82
2018-04-11T11:59:02.715Z,14.23
2018-04-11T12:00:08.276Z,15.15
2018-04-11T12:01:14.829Z,13.93
2018-04-11T12:02:20.634Z,14.50
2018-04-11T12:03:26.416Z,15.20
2018-04-11T12:04:32.878Z,15.07
2018-04-11T12:05:38.742Z,14.98
2018-04-11T12:06:45.276Z,14.55
2018-04-11T12:07:51.909Z,15.48
2018-04-11T12:08:57.805Z,14.80
2018-04-11T12:10:03.861Z,15.70
2018-04-11T12:11:09.639Z,15.85
2018-04-11T12:12:16.976Z,14.48
2018-04-11T12:13:24.397Z,14.60
2018-04-11T12:14:30.191Z,14.63
2018-04-11T12:15:37.535Z,15.30
2018-04-11T12:16:43.508Z,15.50
2018-04-11T12:17:50.968Z,15.05
2018-04-11T12:18:56.822Z,15.45
2018-04-11T12:20:02.580Z,14.55
2018-04-11T12:21:10.087Z,13.65
2018-04-11T12:22:15.870Z,15.10
2018-04-11T12:23:25.047Z,15.07
2018-04-11T12:24:31.041Z,14.65
2018-04-11T12:25:38.184Z,14.38
2018-04-11T12:26:45.775Z,13.85
2018-04-11T12:27:53.488Z,13.88
2018-04-11T12:29:00.102Z,14.13
2018-04-11T12:30:07.107Z,13.45
2018-04-11T12:31:12.779Z,14.80
2018-04-11T12:32:19.446Z,14.75
2018-04-11T12:33:26.170Z,14.65
2018-04-11T12:34:32.905Z,14.35
2018-04-11T12:35:38.840Z,12.80
2018-04-11T12:36:45.718Z,14.90
2018-04-11T12:37:52.144Z,14.57
2018-04-11T12:38:58.328Z,14.18
2018-04-11T12:40:04.783Z,14.55
2018-04-11T12:41:10.718Z,14.60
2018-04-11T12:42:16.585Z,14.15
2018-04-11T12:43:22.609Z,14.65
2018-04-11T12:44:28.395Z,15.00
2018-04-11T12:45:35.025Z,15.73
2018-04-11T12:46:42.776Z,15.77
2018-04-11T12:47:49.518Z,15.73
2018-04-11T12:48:55.303Z,16.33
2018-04-11T12:50:01.836Z,15.45
2018-04-11T12:51:07.669Z,15.07
2018-04-11T12:52:14.487Z,14.52
2018-04-11T12:53:20.332Z,14.63
2018-04-11T12:54:26.158Z,13.90
2018-04-11T12:55:33.660Z,15.32
2018-04-11T12:56:40.362Z,14.27
2018-04-11T12:57:45.937Z,15.32
2018-04-11T12:58:52.494Z,15.25
2018-04-11T12:59:59.185Z,15.00
2018-04-11T13:01:05.046Z,16.15
2018-04-11T13:02:11.769Z,14.30
2018-04-11T13:03:17.574Z,12.70
2018-04-11T13:04:23.564Z,14.68
2018-04-11T13:05:29.351Z,13.32
2018-04-11T13:06:35.149Z,13.60
2018-04-11T13:07:41.688Z,14.20
2018-04-11T13:08:47.588Z,12.65
2018-04-11T13:09:54.023Z,13.68
2018-04-11T13:11:05.298Z,13.00
2018-04-11T13:12:11.119Z,13.27
2018-04-11T13:13:17.295Z,12.80
2018-04-11T13:14:22.932Z,13.68
2018-04-11T13:15:28.940Z,14.43
2018-04-11T13:16:34.724Z,12.32
2018-04-11T13:17:40.518Z,13.38
2018-04-11T13:18:47.164Z,13.40
2018-04-11T13:19:52.965Z,13.40
2018-04-11T13:20:58.529Z,13.80
2018-04-11T13:22:04.331Z,12.77
2018-04-11T13:23:10.983Z,13.32
2018-04-11T13:24:17.648Z,11.98
2018-04-11T13:25:25.243Z,11.90
2018-04-11T13:26:31.840Z,13.23
2018-04-11T13:27:37.624Z,12.93
2018-04-11T13:28:45.098Z,11.43
2018-04-11T13:29:51.907Z,13.30
2018-04-11T13:30:57.770Z,13.52
2018-04-11T13:32:03.558Z,11.25
2018-04-11T13:33:09.491Z,11.95
2018-04-11T13:34:17.608Z,13.43
2018-04-11T13:35:24.165Z,13.43
2018-04-11T13:36:30.014Z,14.45
2018-04-11T13:37:37.291Z,13.45
2018-04-11T13:38:45.517Z,14.80
2018-04-11T13:39:52.281Z,14.10
2018-04-11T13:40:59.862Z,14.45
2018-04-11T13:42:06.180Z,15.35
2018-04-11T13:43:13.912Z,15.15
2018-04-11T13:44:19.495Z,14.82
2018-04-11T13:45:27.707Z,15.90
2018-04-11T13:46:34.307Z,12.52
2018-04-11T13:47:41.786Z,14.63
2018-04-11T13:48:48.307Z,14.70
2018-04-11T13:49:55.173Z,15.05
2018-04-11T13:51:01.367Z,14.60
2018-04-11T13:52:07.279Z,14.32
2018-04-11T13:53:13.029Z,13.73
2018-04-11T13:54:20.012Z,14.02
2018-04-11T13:55:28.209Z,14.95
2018-04-11T13:56:35.674Z,14.27
2018-04-11T13:57:42.278Z,14.80
2018-04-11T13:58:49.746Z,13.88
2018-04-11T13:59:57.252Z,13.43
2018-04-11T14:01:02.840Z,13.70
2018-04-11T14:02:08.629Z,14.10
2018-04-11T14:03:14.420Z,14.35
2018-04-11T14:04:22.018Z,13.07
2018-04-11T14:05:29.548Z,14.20
2018-04-11T14:06:35.155Z,14.60
2018-04-11T14:07:41.083Z,15.10
2018-04-11T14:08:47.632Z,13.90
2018-04-11T14:09:55.033Z,14.10
2018-04-11T14:11:01.807Z,14.55
2018-04-11T14:12:07.961Z,14.02
2018-04-11T14:13:13.796Z,13.05
2018-04-11T14:14:19.848Z,14.52
2018-04-11T14:15:26.001Z,14.80
2018-04-11T14:16:31.844Z,14.30
2018-04-11T14:17:37.582Z,14.77
2018-04-11T14:18:44.007Z,14.25
2018-04-11T14:19:51.176Z,13.93
2018-04-11T14:20:57.718Z,13.40
2018-04-11T14:22:03.725Z,14.10
2018-04-11T14:23:09.597Z,12.70
2018-04-11T14:24:15.557Z,13.57
2018-04-11T14:25:21.464Z,14.32
2018-04-11T14:26:27.501Z,13.62